You are listening to:
CYYZ Tower - Toronto, Ontario, Canada

CYYZ 251700Z 15009KT 15SM SCT060 BKN250 29/19 A3003 RMK CU4CI2 SLP168 DENSITY ALT 2200FT

If stream doesn't start automatically press the play button
If stream stops then reload player then press play